Time;durP1;ratioP1;P1;durP2;ratioP2;P2;SDS_P1;SDS_P2;PMS_P1;PMS_P2;Temp;Humidity;BMP_temperature;BMP_pressure;BME280_temperature;BME280_humidity;BME280_pressure;Samples;Min_cycle;Max_cycle;Signal;HPM_P1;HPM_P2
2021/09/30 00:00:18;;;;;;;1.63;0.73;;;21.50;52.10;;;25.59;34.70;101219.22;5115568;28;20555;-10
2021/09/30 00:02:43;;;;;;;0.70;0.70;;;21.50;52.10;;;25.60;34.65;101209.38;5115342;28;20510;-10
2021/09/30 00:05:11;;;;;;;0.93;0.60;;;21.50;52.10;;;25.60;34.57;101207.53;5115806;28;20052;-10
2021/09/30 00:07:38;;;;;;;0.70;0.70;;;21.50;52.10;;;25.59;34.65;101218.34;5115291;28;20150;-10
2021/09/30 00:10:06;;;;;;;0.50;0.50;;;21.50;52.20;;;25.59;34.53;101226.41;5115473;28;20093;-9
2021/09/30 00:12:36;;;;;;;0.65;0.65;;;21.50;52.20;;;25.61;34.60;101219.97;5115345;28;20058;-10
2021/09/30 00:15:08;;;;;;;0.50;0.50;;;21.50;52.20;;;25.59;34.82;101221.03;5115743;28;20116;-9
2021/09/30 00:52:11;;;;;;;0.60;0.60;;;21.50;52.10;;;25.56;34.68;101229.31;5096662;28;20440;-12
2021/09/30 00:55:04;;;;;;;0.88;0.77;;;21.50;52.10;;;25.59;34.74;101245.13;5114789;28;20177;-12
2021/09/30 01:18:45;;;;;;;0.95;0.60;;;21.50;52.10;;;25.54;34.59;101272.25;5081705;28;20040;-12
2021/09/30 01:31:41;;;;;;;0.50;0.50;;;21.50;52.60;;;25.54;34.58;101280.28;5082029;28;20052;-12
2021/09/30 01:40:23;;;;;;;0.73;0.65;;;21.50;52.10;;;25.54;34.66;101284.78;5097434;28;20060;-12
2021/09/30 01:58:09;;;;;;;0.50;0.50;;;21.50;52.10;;;25.52;34.54;101295.63;5032859;28;20057;-12
2021/09/30 02:18:33;;;;;;;0.80;0.70;;;21.50;52.20;;;25.52;34.56;101314.38;5083532;28;20089;-12
2021/09/30 02:23:58;;;;;;;0.82;0.70;;;21.50;52.10;;;25.55;34.76;101326.69;5078837;28;20051;-12
2021/09/30 02:26:35;;;;;;;0.43;0.43;;;21.50;52.10;;;25.54;34.60;101328.47;5111575;28;20051;-12
2021/09/30 02:29:21;;;;;;;0.50;0.50;;;21.50;52.10;;;25.50;34.76;101333.22;5095131;28;20116;-12
2021/09/30 02:59:41;;;;;;;1.27;0.67;;;21.40;52.10;;;25.51;34.70;101342.13;5111911;28;20047;-12
2021/09/30 03:02:08;;;;;;;0.63;0.63;;;21.40;52.20;;;25.48;34.70;101337.00;5094475;28;20044;-12
2021/09/30 03:04:35;;;;;;;0.60;0.60;;;21.40;52.20;;;25.50;34.61;101351.97;5076474;28;20047;-12
2021/09/30 03:07:06;;;;;;;0.50;0.50;;;21.40;52.20;;;25.48;34.77;101353.91;5077564;28;20403;-12
2021/09/30 03:09:40;;;;;;;0.45;0.45;;;21.40;52.20;;;25.54;34.58;101357.94;5094590;28;20506;-10
2021/09/30 03:12:17;;;;;;;0.50;0.50;;;21.40;52.20;;;25.51;34.61;101361.72;5079253;28;20115;-10
2021/09/30 03:14:48;;;;;;;0.73;0.50;;;21.40;52.20;;;25.54;34.65;101359.78;5078455;28;20048;-10
2021/09/30 03:17:20;;;;;;;0.50;0.50;;;21.40;52.10;;;25.51;34.81;101369.75;5077855;28;20205;-10
2021/09/30 03:19:59;;;;;;;0.80;0.50;;;21.50;52.10;;;25.55;34.65;101374.88;5094732;28;20043;-10
2021/09/30 03:22:28;;;;;;;0.60;0.60;;;21.50;52.10;;;25.54;34.65;101374.00;5079359;28;20078;-10
2021/09/30 03:24:55;;;;;;;0.55;0.50;;;21.40;52.00;;;25.56;34.60;101366.75;5077209;28;20056;-10
2021/09/30 03:27:21;;;;;;;0.40;0.40;;;21.50;52.00;;;25.58;34.62;101377.34;5079564;28;20048;-10
2021/09/30 03:29:47;;;;;;;0.60;0.60;;;21.50;51.90;;;25.59;34.74;101381.72;5078840;28;20036;-10
2021/09/30 03:32:15;;;;;;;0.52;0.52;;;21.50;51.90;;;25.59;34.59;101385.22;5080854;28;20048;-10
2021/09/30 03:34:46;;;;;;;0.60;0.60;;;21.50;51.90;;;25.61;34.55;101393.16;5116123;28;20105;-10
2021/09/30 03:37:12;;;;;;;1.20;0.68;;;21.50;51.80;;;25.63;34.54;101386.72;5080704;28;20070;-10
2021/09/30 03:39:39;;;;;;;0.60;0.60;;;21.50;51.80;;;25.63;34.58;101391.25;5096325;28;20044;-10
2021/09/30 03:42:06;;;;;;;0.50;0.50;;;21.50;51.80;;;25.62;34.53;101390.38;5115139;28;20047;-10
2021/09/30 03:44:37;;;;;;;0.50;0.50;;;21.50;51.80;;;25.68;34.49;101402.47;5114916;28;20050;-10
2021/09/30 03:47:07;;;;;;;0.60;0.60;;;21.60;51.80;;;25.68;34.40;101408.66;5114449;28;20184;-10
2021/09/30 03:49:54;;;;;;;0.50;0.50;;;21.60;51.80;;;25.69;34.46;101410.38;5115887;28;20051;-10
2021/09/30 03:59:05;;;;;;;1.15;0.60;;;21.60;51.70;;;25.70;34.44;101409.41;5115289;28;20055;-10
2021/09/30 04:00:25;;;;;;;0.98;0.60;;;21.60;51.70;;;25.73;34.33;101402.09;5094508;28;20083;-9
2021/09/30 04:02:53;;;;;;;0.45;0.40;;;21.60;51.70;;;25.70;34.44;101405.88;5114841;28;20513;-10
2021/09/30 04:05:18;;;;;;;0.55;0.55;;;21.60;51.70;;;25.70;34.34;101416.59;5097087;28;20047;-10
2021/09/30 04:07:44;;;;;;;0.80;0.70;;;21.60;51.60;;;25.74;34.34;101419.91;5112648;28;20040;-10
2021/09/30 04:10:11;;;;;;;0.50;0.50;;;21.70;51.50;;;25.70;34.36;101408.56;5114092;28;20047;-10
2021/09/30 04:12:37;;;;;;;0.47;0.40;;;21.70;51.50;;;25.74;34.14;101417.22;5114044;28;20093;-10
2021/09/30 04:15:05;;;;;;;0.50;0.50;;;21.70;51.50;;;25.72;34.26;101435.22;5113305;28;20511;-10
2021/09/30 04:17:31;;;;;;;0.60;0.60;;;21.60;51.70;;;25.70;34.34;101427.31;5113523;28;20104;-10
2021/09/30 04:19:57;;;;;;;0.60;0.60;;;21.60;51.70;;;25.66;34.38;101431.16;5113984;28;20055;-10
2021/09/30 04:22:23;;;;;;;0.50;0.43;;;21.50;51.80;;;25.68;34.51;101448.00;5113508;28;20104;-10
2021/09/30 04:24:49;;;;;;;0.70;0.57;;;21.60;51.70;;;25.67;34.33;101436.41;5113819;28;20438;-10
2021/09/30 04:27:17;;;;;;;0.55;0.55;;;21.60;51.60;;;25.67;34.26;101436.41;5114113;28;20044;-10
2021/09/30 04:29:44;;;;;;;0.63;0.63;;;21.70;51.50;;;25.66;34.34;101444.56;5096854;28;20134;-10
2021/09/30 04:32:10;;;;;;;0.52;0.52;;;21.70;51.50;;;25.68;34.36;101445.31;5096521;28;20047;-10
2021/09/30 04:34:37;;;;;;;0.60;0.50;;;21.70;51.50;;;25.68;34.54;101458.72;5096974;28;20044;-10
2021/09/30 04:37:04;;;;;;;0.50;0.50;;;21.60;51.50;;;25.65;34.28;101457.09;5113667;28;20143;-10
2021/09/30 04:39:31;;;;;;;0.43;0.43;;;21.60;51.60;;;25.66;34.47;101461.50;5096418;28;20044;-10
2021/09/30 04:41:56;;;;;;;0.60;0.60;;;21.60;51.70;;;25.65;34.36;101458.94;5113502;28;20044;-10
2021/09/30 04:44:23;;;;;;;0.60;0.60;;;21.50;51.70;;;25.63;34.37;101466.22;5112549;28;20134;-10
2021/09/30 04:46:53;;;;;;;1.08;0.70;;;21.50;51.80;;;25.63;34.40;101469.75;5095438;28;20377;-10
2021/09/30 04:49:37;;;;;;;0.50;0.50;;;21.50;51.90;;;25.62;34.26;101468.03;5114960;28;20062;-10
2021/09/30 04:52:04;;;;;;;0.60;0.55;;;21.50;51.80;;;25.60;34.29;101453.91;5113473;28;20040;-10
2021/09/30 04:54:32;;;;;;;0.60;0.60;;;21.50;51.80;;;25.61;34.56;101485.06;5113418;28;20376;-10
2021/09/30 04:56:58;;;;;;;0.70;0.70;;;21.50;51.80;;;25.59;34.38;101483.47;5113243;28;20071;-10
2021/09/30 04:59:28;;;;;;;0.40;0.40;;;21.50;51.80;;;25.61;34.52;101490.44;5112890;28;20044;-10
2021/09/30 05:02:13;;;;;;;0.57;0.57;;;21.50;51.90;;;25.60;34.52;101493.22;5114767;28;20201;-9
2021/09/30 05:04:39;;;;;;;0.50;0.50;;;21.50;51.90;;;25.57;34.34;101496.97;5112913;28;20043;-10
2021/09/30 05:07:05;;;;;;;0.52;0.52;;;21.40;51.90;;;25.58;34.39;101492.47;5096317;28;20044;-10
2021/09/30 05:09:32;;;;;;;0.50;0.50;;;21.40;51.90;;;25.56;34.43;101495.25;5114504;28;20089;-10
2021/09/30 05:12:03;;;;;;;0.50;0.50;;;21.50;52.00;;;25.58;34.46;101505.88;5113103;28;20039;-10
2021/09/30 05:14:34;;;;;;;0.52;0.50;;;21.40;51.90;;;25.56;34.54;101489.91;5093982;28;20056;-10
2021/09/30 05:16:59;;;;;;;0.45;0.45;;;21.50;52.00;;;25.56;34.44;101500.63;5112564;28;20044;-10
2021/09/30 05:19:34;;;;;;;0.50;0.50;;;21.40;51.90;;;25.57;34.47;101509.50;5112473;28;20047;-9
2021/09/30 05:22:00;;;;;;;0.98;0.57;;;21.40;52.00;;;25.54;34.55;101499.00;5113523;28;20379;-10
2021/09/30 05:24:26;;;;;;;0.57;0.50;;;21.50;52.10;;;25.56;34.44;101508.66;5111530;28;20051;-10
2021/09/30 05:26:52;;;;;;;0.52;0.50;;;21.40;52.00;;;25.55;34.41;101512.28;5113025;28;20142;-10
2021/09/30 05:29:19;;;;;;;0.40;0.40;;;21.40;52.00;;;25.55;34.47;101496.22;5111992;28;20095;-10
2021/09/30 05:31:59;;;;;;;0.50;0.50;;;21.40;52.00;;;25.54;34.47;101499.00;5110871;28;20083;-9
2021/09/30 05:34:43;;;;;;;0.60;0.60;;;21.40;52.10;;;25.52;34.41;101509.81;5112907;28;20036;-10
2021/09/30 05:37:10;;;;;;;0.52;0.50;;;21.40;52.20;;;25.51;34.54;101508.97;5095361;28;20051;-11
2021/09/30 05:39:36;;;;;;;0.63;0.40;;;21.30;52.20;;;25.52;34.50;101515.19;5095733;28;20138;-9
2021/09/30 05:42:04;;;;;;;0.63;0.57;;;21.40;52.20;;;25.52;34.51;101517.84;5079248;28;20138;-11
2021/09/30 05:44:32;;;;;;;0.50;0.50;;;21.40;52.20;;;25.53;34.58;101519.56;5110770;28;20040;-13
2021/09/30 05:47:02;;;;;;;0.50;0.50;;;21.40;52.20;;;25.54;34.62;101523.09;5094624;28;20040;-12
2021/09/30 05:49:28;;;;;;;0.50;0.50;;;21.40;52.10;;;25.52;34.53;101529.41;5094449;28;20045;-12
2021/09/30 05:52:13;;;;;;;0.50;0.50;;;21.40;51.90;;;25.54;34.43;101528.47;5113182;28;20057;-12
2021/09/30 05:54:50;;;;;;;1.00;0.40;;;21.50;51.90;;;25.55;34.43;101522.16;5095870;28;20044;-12
2021/09/30 05:57:25;;;;;;;0.43;0.38;;;21.50;51.80;;;25.56;34.49;101527.41;5095488;28;20043;-12
2021/09/30 05:59:52;;;;;;;0.55;0.55;;;21.50;51.90;;;25.57;34.56;101533.59;5114096;28;20054;-12
2021/09/30 06:11:45;;;;;;;0.50;0.40;;;21.50;51.70;;;25.60;34.43;101544.94;5095118;28;20134;-12
2021/09/30 06:13:41;;;;;;;0.40;0.40;;;21.50;51.70;;;25.63;34.35;101550.09;5099726;28;20483;-12
2021/09/30 06:16:11;;;;;;;0.40;0.40;;;21.60;51.60;;;25.72;34.27;101555.75;5113922;28;20043;-12
2021/09/30 06:18:38;;;;;;;;;;;21.60;51.50;;;25.84;34.14;101560.22;5096112;28;20293;-12
2021/09/30 06:21:04;;;;;;;0.50;0.50;;;21.70;51.40;;;25.76;34.16;101565.28;5112021;28;19916;-12
2021/09/30 06:23:30;;;;;;;0.90;0.60;;;21.70;51.30;;;25.74;34.20;101573.41;5112483;28;20054;-12
2021/09/30 06:25:57;;;;;;;0.50;0.50;;;21.80;51.20;;;25.74;34.24;101567.22;5111101;28;20392;-12
2021/09/30 06:28:24;;;;;;;0.38;0.38;;;21.80;51.00;;;25.74;34.07;101570.75;5112006;28;20047;-11
2021/09/30 06:30:55;;;;;;;0.88;0.40;;;21.80;50.90;;;25.79;34.17;101573.09;5095621;28;20130;-12
2021/09/30 06:33:40;;;;;;;0.50;0.50;;;21.90;50.90;;;25.81;34.20;101579.19;5113155;28;20441;-12
2021/09/30 06:36:24;;;;;;;0.50;0.50;;;21.90;50.90;;;25.83;34.19;101586.16;5112315;28;20460;-12
2021/09/30 06:38:50;;;;;;;0.73;0.60;;;21.90;50.90;;;25.86;34.09;101596.66;5112293;28;20035;-12
2021/09/30 06:41:17;;;;;;;0.85;0.60;;;21.90;50.90;;;25.86;34.11;101602.03;5111594;28;20387;-12
2021/09/30 06:43:43;;;;;;;0.50;0.50;;;21.90;51.00;;;25.86;34.10;101609.19;5111696;28;20050;-12
2021/09/30 06:46:32;;;;;;;0.50;0.50;;;21.80;51.20;;;25.87;34.21;101603.72;5098547;28;20373;-12
2021/09/30 06:49:00;;;;;;;0.40;0.40;;;21.90;50.90;;;25.94;34.14;101627.41;5112166;28;20043;-12
2021/09/30 06:51:46;;;;;;;0.52;0.52;;;22.10;50.50;;;26.00;34.13;101619.81;5112851;28;20063;-12
2021/09/30 06:54:11;;;;;;;0.70;0.57;;;22.30;50.20;;;26.06;33.96;101614.03;5112969;28;20067;-12
2021/09/30 06:56:57;;;;;;;0.98;0.50;;;22.30;49.80;;;26.17;34.02;101632.00;5071111;28;20482;-12
2021/09/30 06:59:45;;;;;;;0.50;0.47;;;22.40;49.70;;;26.18;33.80;101616.81;5113547;28;20051;-12
2021/09/30 07:02:30;;;;;;;1.70;0.60;;;22.40;49.60;;;26.18;33.72;101617.66;5116868;28;20081;-12
2021/09/30 07:05:15;;;;;;;0.50;0.50;;;22.30;49.70;;;26.19;33.75;101630.06;5116577;28;20386;-12
2021/09/30 07:08:03;;;;;;;0.50;0.40;;;22.30;49.90;;;26.17;33.61;101629.31;5115781;28;20043;-12
2021/09/30 07:10:30;;;;;;;0.55;0.55;;;22.30;49.90;;;26.14;33.64;101637.59;5098173;28;20047;-12
2021/09/30 07:12:56;;;;;;;1.85;0.50;;;22.30;49.90;;;26.17;33.57;101649.91;5116333;28;20043;-11
2021/09/30 07:15:22;;;;;;;0.45;0.45;;;22.30;49.80;;;26.15;33.74;101649.19;5116206;28;20055;-11
2021/09/30 07:17:48;;;;;;;0.40;0.40;;;22.30;49.80;;;26.15;33.64;101662.59;5116233;28;20044;-12
2021/09/30 07:20:14;;;;;;;0.75;0.50;;;22.30;49.90;;;26.12;33.60;101662.78;5097614;28;20372;-12
2021/09/30 07:22:40;;;;;;;0.40;0.40;;;22.30;49.90;;;26.09;33.78;101663.84;5116397;28;20055;-12
2021/09/30 07:25:07;;;;;;;0.85;0.50;;;22.20;50.00;;;26.08;33.63;101659.47;5115959;28;20426;-12
2021/09/30 07:27:34;;;;;;;0.50;0.50;;;22.20;50.10;;;26.06;33.63;101664.94;5113119;28;20055;-12
2021/09/30 07:30:00;;;;;;;0.82;0.50;;;22.10;50.20;;;26.05;33.65;101660.53;5116516;28;20035;-12
2021/09/30 07:32:26;;;;;;;0.63;0.60;;;22.10;50.30;;;26.05;33.72;101663.22;5116328;28;20097;-12
2021/09/30 07:34:52;;;;;;;0.60;0.50;;;22.10;50.30;;;26.02;33.62;101658.06;5115970;28;20051;-12
2021/09/30 07:37:18;;;;;;;1.02;0.80;;;22.10;50.20;;;26.02;33.84;101655.41;5115939;28;20540;-12
2021/09/30 07:39:44;;;;;;;0.82;0.50;;;22.10;50.10;;;26.04;33.80;101666.88;5116339;28;20043;-12
2021/09/30 07:42:10;;;;;;;0.75;0.50;;;22.20;50.10;;;26.07;33.75;101671.16;5115789;28;20514;-12
2021/09/30 07:44:38;;;;;;;0.68;0.50;;;22.30;49.90;;;26.10;33.93;101683.50;5115703;28;20050;-12
2021/09/30 07:47:05;;;;;;;0.50;0.50;;;22.30;49.80;;;26.11;33.75;101679.84;5115781;28;20069;-12
2021/09/30 07:49:33;;;;;;;0.77;0.60;;;22.30;49.70;;;26.14;33.78;101679.63;5115920;28;20048;-12
2021/09/30 07:52:00;;;;;;;0.75;0.50;;;22.30;49.80;;;26.17;33.70;101684.75;5115410;28;20048;-12
2021/09/30 07:54:26;;;;;;;0.80;0.60;;;22.30;49.70;;;26.20;33.68;101689.91;5115367;28;20081;-12
2021/09/30 07:56:52;;;;;;;0.77;0.57;;;22.40;49.60;;;26.22;33.66;101686.13;5115303;28;20048;-12
2021/09/30 07:59:18;;;;;;;1.05;0.50;;;22.40;49.40;;;26.26;33.49;101697.50;5115151;28;20131;-12
2021/09/30 08:01:44;;;;;;;0.65;0.47;;;22.50;49.40;;;26.29;33.52;101696.44;5115245;28;20075;-12
2021/09/30 08:04:09;;;;;;;0.45;0.45;;;22.50;49.50;;;26.32;33.51;101697.06;5115706;28;20043;-12
2021/09/30 08:06:39;;;;;;;0.65;0.50;;;22.50;49.40;;;26.37;33.31;101715.50;5115499;28;20051;-12
2021/09/30 08:09:05;;;;;;;2.08;0.43;;;22.60;49.30;;;26.37;33.33;101715.50;5115382;28;20109;-12
2021/09/30 08:11:31;;;;;;;0.57;0.57;;;22.60;49.20;;;26.40;33.26;101715.28;5096214;28;20051;-12
2021/09/30 08:13:57;;;;;;;0.40;0.40;;;22.60;49.10;;;26.40;33.25;101718.81;5114966;28;20071;-12
2021/09/30 08:16:24;;;;;;;2.67;0.63;;;22.60;49.10;;;26.40;33.28;101720.66;5115253;28;20055;-12
2021/09/30 08:18:51;;;;;;;0.60;0.50;;;22.60;49.20;;;26.41;33.31;101725.03;5115598;28;20035;-12
2021/09/30 08:21:17;;;;;;;0.68;0.57;;;22.50;49.20;;;26.40;33.37;101721.50;5097348;28;20537;-12
2021/09/30 08:23:43;;;;;;;3.70;0.73;;;22.50;49.30;;;26.38;33.33;101712.72;5115044;28;20044;-12
2021/09/30 08:26:10;;;;;;;2.22;0.50;;;22.50;49.40;;;26.38;33.26;101725.25;5115129;28;20130;-12
2021/09/30 08:28:37;;;;;;;2.00;0.60;;;22.50;49.40;;;26.36;33.33;101716.47;5114915;28;20090;-12
2021/09/30 08:31:06;;;;;;;0.80;0.63;;;22.40;49.40;;;26.37;33.19;101727.09;5115360;28;20047;-12
2021/09/30 08:33:39;;;;;;;1.67;0.65;;;22.50;49.40;;;26.36;33.17;101730.75;5115521;28;20400;-12
2021/09/30 08:36:08;;;;;;;0.95;0.55;;;22.40;49.40;;;26.37;33.18;101728.91;5115053;28;20047;-12
2021/09/30 08:38:34;;;;;;;3.25;0.50;;;22.40;50.00;;;26.35;33.33;101729.03;5115185;28;20416;-12
2021/09/30 08:40:59;;;;;;;1.08;0.90;;;22.40;49.40;;;26.36;33.35;101737.91;5114849;28;20040;-12
2021/09/30 08:43:25;;;;;;;1.58;0.85;;;22.50;49.40;;;26.34;33.33;101732.66;5114761;28;20509;-12
2021/09/30 08:45:51;;;;;;;1.27;0.60;;;22.50;49.40;;;26.36;33.33;101740.59;5114741;28;20044;-12
2021/09/30 08:48:17;;;;;;;1.05;0.52;;;22.50;49.40;;;26.35;33.35;101739.75;5114801;28;20047;-12
2021/09/30 08:50:43;;;;;;;0.88;0.60;;;22.40;49.40;;;26.37;33.27;101747.69;5113460;28;20395;-12
2021/09/30 08:53:11;;;;;;;1.92;0.60;;;22.40;49.50;;;26.32;33.14;101741.78;5114712;28;20051;-12
2021/09/30 08:55:40;;;;;;;3.03;1.05;;;22.40;49.50;;;26.32;33.27;101742.63;5096165;28;20043;-11
2021/09/30 08:58:08;;;;;;;0.93;0.80;;;22.40;49.50;;;26.30;33.13;101735.69;5096725;28;20044;-12
2021/09/30 09:00:38;;;;;;;1.13;0.80;;;22.40;49.50;;;26.29;33.17;101739.31;5111000;28;20108;-10
2021/09/30 09:03:04;;;;;;;0.60;0.40;;;22.40;49.50;;;26.29;33.28;101742.84;5114897;28;20143;-10
2021/09/30 09:05:30;;;;;;;1.83;0.60;;;22.40;49.50;;;26.30;33.16;101749.09;5114563;28;20550;-10
2021/09/30 09:07:59;;;;;;;1.75;0.73;;;22.40;49.60;;;26.28;33.21;101756.38;5114449;28;20082;-10
2021/09/30 09:10:34;;;;;;;1.38;1.00;;;22.40;49.70;;;26.28;33.22;101754.56;5114460;28;20497;-10
2021/09/30 09:13:14;;;;;;;2.90;0.77;;;22.30;49.70;;;26.27;33.25;101763.56;5114452;28;20047;-10
2021/09/30 09:15:49;;;;;;;5.07;0.90;;;22.30;49.70;;;26.27;33.24;101774.28;5114427;28;20130;-11
2021/09/30 09:18:23;;;;;;;1.08;0.50;;;22.30;49.70;;;26.23;33.25;101770.13;5114022;28;20062;-10
2021/09/30 09:21:01;;;;;;;0.50;0.50;;;22.30;49.70;;;26.21;33.30;101769.34;5114512;28;20495;-11
2021/09/30 09:23:27;;;;;;;2.97;0.70;;;22.30;49.70;;;26.21;33.23;101774.72;5114641;28;20043;-11
2021/09/30 09:26:17;;;;;;;0.90;0.68;;;22.30;49.70;;;26.21;33.46;101777.38;5113084;28;20052;-11
2021/09/30 09:29:15;;;;;;;3.65;0.70;;;22.30;49.70;;;26.21;33.25;101780.94;5113822;28;20055;-11
2021/09/30 09:31:50;;;;;;;1.75;0.68;;;22.30;49.70;;;26.18;33.32;101786.53;5113873;28;20039;-11
2021/09/30 09:34:38;;;;;;;2.55;0.70;;;22.30;49.70;;;26.17;33.43;101771.38;5094800;28;20495;-11
2021/09/30 09:37:34;;;;;;;2.80;0.70;;;22.30;49.70;;;26.16;33.35;101785.78;5113861;28;20073;-11
2021/09/30 09:40:17;;;;;;;1.77;0.73;;;22.30;49.70;;;26.16;33.43;101785.78;5114366;28;20050;-12
2021/09/30 09:42:43;;;;;;;0.80;0.50;;;22.30;49.70;;;26.17;33.50;101786.63;5113981;28;20050;-11
2021/09/30 09:45:13;;;;;;;3.13;0.90;;;22.30;49.70;;;26.16;33.29;101780.41;5113842;28;20055;-11
2021/09/30 09:47:41;;;;;;;1.88;0.80;;;22.30;49.70;;;26.13;33.49;101777.94;5113715;28;20051;-14
2021/09/30 09:50:23;;;;;;;0.50;0.50;;;22.30;49.80;;;26.13;33.57;101791.34;5114389;28;20051;-11
2021/09/30 09:52:55;;;;;;;2.13;0.70;;;22.20;49.90;;;26.14;33.49;101792.19;5095649;28;20556;-12
2021/09/30 09:55:26;;;;;;;2.88;0.93;;;22.20;50.00;;;26.14;33.50;101785.00;5113725;28;20127;-12
2021/09/30 09:58:15;;;;;;;2.35;1.33;;;22.20;50.00;;;26.15;33.45;101785.88;5113781;28;20082;-12
2021/09/30 10:00:51;;;;;;;4.70;0.90;;;22.10;50.00;;;26.15;33.39;101794.78;5113911;28;20043;-12
2021/09/30 10:03:22;;;;;;;1.60;0.93;;;22.20;50.20;;;26.16;33.56;101798.28;5113818;28;20376;-12
2021/09/30 10:05:49;;;;;;;2.05;0.70;;;22.20;50.10;;;26.17;33.44;101798.19;5113626;28;20052;-12
2021/09/30 10:08:16;;;;;;;1.95;0.80;;;22.20;50.10;;;26.16;33.62;101800.97;5113885;28;20134;-12
2021/09/30 10:10:46;;;;;;;2.47;0.88;;;22.20;50.10;;;26.16;33.52;101798.28;5113471;28;20047;-11
2021/09/30 10:13:13;;;;;;;2.05;0.60;;;22.20;50.10;;;26.17;33.52;101800.88;5113411;28;20208;-12
2021/09/30 10:15:40;;;;;;;0.88;0.70;;;22.20;50.00;;;26.15;33.38;101799.28;5094531;28;20044;-12
2021/09/30 10:18:10;;;;;;;2.25;0.60;;;22.20;50.00;;;26.18;33.60;101810.66;5113458;28;20051;-12
2021/09/30 10:20:38;;;;;;;2.63;0.60;;;22.20;50.10;;;26.20;33.51;101805.19;5113297;28;20047;-11
2021/09/30 10:23:07;;;;;;;1.23;0.55;;;22.30;50.00;;;26.19;33.36;101798.94;5113371;28;20071;-12
2021/09/30 10:25:37;;;;;;;0.60;0.60;;;22.30;50.00;;;26.18;33.40;101807.97;5113404;28;20055;-12
2021/09/30 10:28:06;;;;;;;4.40;0.83;;;22.30;50.00;;;26.21;33.22;101810.44;5113272;28;20043;-12
2021/09/30 10:30:45;;;;;;;2.35;0.70;;;22.20;49.90;;;26.18;33.43;101801.75;5113240;28;20048;-12
2021/09/30 10:33:20;;;;;;;2.38;0.60;;;22.30;49.90;;;26.20;33.43;101811.38;5113492;28;20048;-12
2021/09/30 10:35:53;;;;;;;1.30;0.82;;;22.30;49.90;;;26.20;33.46;101810.53;5112836;28;20415;-12
2021/09/30 10:38:33;;;;;;;1.58;0.60;;;22.30;49.80;;;26.21;33.48;101806.88;5112876;28;20073;-12
2021/09/30 10:41:14;;;;;;;2.10;0.60;;;22.30;49.90;;;26.23;33.32;101808.50;5095744;28;20430;-12
2021/09/30 10:43:47;;;;;;;0.43;0.43;;;22.30;49.90;;;26.21;33.30;101805.06;5113265;28;20051;-12
2021/09/30 10:46:22;;;;;;;1.20;0.80;;;22.30;49.90;;;26.24;33.57;101818.28;5113070;28;20101;-12
2021/09/30 10:48:50;;;;;;;3.90;0.77;;;22.30;49.80;;;26.25;33.38;101813.75;5113361;28;20058;-12
2021/09/30 10:51:17;;;;;;;1.05;0.73;;;22.30;49.90;;;26.24;33.46;101825.44;5094949;28;20081;-12
2021/09/30 10:53:46;;;;;;;0.95;0.63;;;22.30;49.90;;;26.25;33.35;101814.59;5113146;28;20047;-12
2021/09/30 10:56:24;;;;;;;2.10;0.70;;;22.30;49.80;;;26.26;33.41;101818.13;5111658;28;20422;-12
2021/09/30 10:58:50;;;;;;;2.53;0.80;;;22.30;49.80;;;26.24;33.37;101812.03;5112971;28;20117;-12
2021/09/30 11:01:17;;;;;;;1.95;0.80;;;22.30;49.80;;;26.28;33.35;101815.34;5112874;28;20056;-12
2021/09/30 11:04:04;;;;;;;1.20;0.70;;;22.30;49.70;;;26.27;33.35;101822.53;5112828;28;20071;-12
2021/09/30 11:06:31;;;;;;;1.73;0.98;;;22.30;49.60;;;26.27;33.21;101821.69;5112790;28;20100;-12
2021/09/30 11:09:18;;;;;;;1.42;0.75;;;22.40;49.70;;;26.29;33.59;101827.81;5113095;28;20138;-11
2021/09/30 11:11:50;;;;;;;2.00;0.80;;;22.30;49.60;;;26.28;33.40;101818.91;5112437;28;20084;-12
2021/09/30 11:14:19;;;;;;;3.42;0.70;;;22.30;49.70;;;26.27;33.21;101822.53;5112477;28;20047;-12
2021/09/30 11:16:52;;;;;;;1.20;0.80;;;22.30;49.70;;;26.25;33.39;101824.47;5112357;28;20048;-12
2021/09/30 11:19:41;;;;;;;2.38;0.85;;;22.30;49.70;;;26.27;33.38;101832.41;5112391;28;20043;-12
2021/09/30 11:22:11;;;;;;;2.45;0.60;;;22.30;49.70;;;26.26;33.39;101828.84;5095049;28;20086;-12
2021/09/30 11:24:54;;;;;;;3.60;0.70;;;22.30;49.80;;;26.25;33.25;101836.06;5112747;28;20517;-12
2021/09/30 11:27:22;;;;;;;1.45;1.08;;;22.30;49.90;;;26.26;33.22;101842.25;5094057;28;20086;-11
2021/09/30 11:29:49;;;;;;;1.35;0.80;;;22.30;49.90;;;26.25;33.31;101837.88;5094121;28;20518;-12
2021/09/30 11:32:16;;;;;;;2.67;0.73;;;22.30;49.80;;;26.27;33.10;101845.81;5112458;28;20066;-12
2021/09/30 11:34:50;;;;;;;2.05;0.50;;;22.30;49.80;;;26.22;33.48;101851.50;5112209;28;20399;-12
2021/09/30 11:37:35;;;;;;;1.75;0.60;;;22.30;49.80;;;26.27;33.36;101848.50;5112733;28;20407;-12
2021/09/30 11:40:06;;;;;;;0.75;0.68;;;22.30;49.80;;;26.27;33.40;101844.00;5108552;28;20048;-12
2021/09/30 11:42:39;;;;;;;2.08;0.90;;;22.30;49.90;;;26.26;33.46;101855.66;5091384;28;20059;-12
2021/09/30 11:45:22;;;;;;;1.73;1.00;;;22.30;49.90;;;26.24;33.24;101847.75;5112562;28;20070;-12
2021/09/30 11:47:50;;;;;;;1.00;0.75;;;22.30;49.90;;;26.29;33.27;101871.53;5113361;28;20048;-12
2021/09/30 11:50:21;;;;;;;1.50;0.60;;;22.30;49.80;;;26.25;33.27;101860.19;5115980;28;20112;-12
2021/09/30 11:53:07;;;;;;;2.15;0.57;;;22.30;49.80;;;26.26;33.37;101863.72;5114971;28;20540;-12
2021/09/30 11:55:40;;;;;;;1.42;0.80;;;22.30;49.80;;;26.23;33.26;101859.44;5115927;28;20055;-12
2021/09/30 11:58:06;;;;;;;0.90;0.63;;;22.30;49.80;;;26.29;33.39;101876.06;5115860;28;20554;-12
2021/09/30 12:00:33;;;;;;;1.20;0.70;;;22.30;49.70;;;26.28;33.37;101871.66;5115596;28;20055;-12
2021/09/30 12:03:03;;;;;;;2.20;0.70;;;22.30;49.60;;;26.28;33.36;101868.97;5115507;28;20181;-12
2021/09/30 12:05:33;;;;;;;1.52;0.82;;;22.30;49.70;;;26.27;33.20;101870.81;5115393;28;20496;-12
2021/09/30 12:08:03;;;;;;;1.02;0.70;;;22.30;49.80;;;26.30;33.38;101875.09;5113918;28;20044;-12
2021/09/30 12:10:32;;;;;;;1.25;0.60;;;22.30;49.70;;;26.26;33.30;101869.06;5115238;28;20064;-11
2021/09/30 12:12:58;;;;;;;1.20;0.55;;;22.30;49.80;;;26.26;33.30;101879.78;5115440;28;20059;-12
2021/09/30 12:15:25;;;;;;;1.30;0.70;;;22.30;49.90;;;26.28;33.20;101885.94;5115595;28;20051;-12
2021/09/30 12:17:51;;;;;;;1.95;0.63;;;22.30;49.90;;;26.27;33.24;101876.16;5115082;28;20047;-13
2021/09/30 12:20:20;;;;;;;2.05;0.70;;;22.30;49.80;;;26.27;33.42;101883.34;5112894;28;20044;-24
2021/09/30 12:22:53;;;;;;;2.10;0.70;;;22.30;49.80;;;26.25;33.31;101883.47;5112217;28;20456;-12
2021/09/30 12:25:26;;;;;;;2.28;0.73;;;22.30;49.70;;;26.26;33.15;101882.47;5116489;28;20046;-21
2021/09/30 12:28:10;;;;;;;1.23;0.60;;;22.30;49.70;;;26.24;33.30;101885.28;5115944;28;20047;-12
2021/09/30 12:30:47;;;;;;;0.73;0.70;;;22.30;49.70;;;26.25;33.50;101884.31;5113460;28;20040;-12
2021/09/30 12:33:14;;;;;;;1.08;0.60;;;22.30;49.70;;;26.26;33.22;101893.19;5113789;28;20051;-12
2021/09/30 12:39:32;;;;;;;1.63;0.73;;;22.30;49.70;;;26.24;33.45;101879.03;5115076;28;20113;-12
2021/09/30 12:42:17;;;;;;;2.90;0.80;;;22.30;49.70;;;26.27;33.29;101891.41;5114174;28;20065;-13
2021/09/30 12:45:15;;;;;;;1.58;0.68;;;22.30;49.70;;;26.27;33.30;101896.75;5113584;28;20051;-12
2021/09/30 12:48:10;;;;;;;1.80;0.60;;;22.30;49.70;;;26.29;33.23;101890.31;5098396;28;20063;-12
2021/09/30 12:50:48;;;;;;;1.73;0.80;;;22.30;49.70;;;26.27;33.26;101883.34;5095942;28;20063;-17
2021/09/30 12:53:25;;;;;;;3.58;0.70;;;22.30;49.60;;;26.27;33.42;101878.84;5097685;28;20044;-12
2021/09/30 12:56:08;;;;;;;2.45;0.70;;;22.30;49.60;;;26.28;33.37;101888.63;5092657;28;20495;-12
2021/09/30 12:58:45;;;;;;;0.88;0.60;;;22.40;49.60;;;26.27;33.24;101876.16;5092442;28;20500;-14
2021/09/30 13:01:30;;;;;;;1.15;0.70;;;22.40;49.60;;;26.30;33.38;101875.97;5096524;28;20073;-11
2021/09/30 13:04:22;;;;;;;1.58;0.70;;;22.30;49.60;;;26.28;33.18;101879.69;5094056;28;20059;-12